UKBBUKLU

Guest
Details From UKBB - Boryspil
To UKLU - UZHHOROD INTL
Flight Number -
Tags generated
Created
Modified
Stats Distance 354 nm / 656 km
Max Altitude 26,200 ft / 7,986 m
Waypoints 7
Social Downloads 0
Likes 0
Share VATSIM

Download

Looking for another format? Having issues loading an existing format? Contact us
Advertisement - Login to hide

Notes

Basic altitude profile: - Ascent Rate: 1200ft/min - Ascent Speed: 110kts - Cruise Altitude: 8000ft - Cruise Speed: 150kts - Descent Rate: 1500ft/min - Descent Speed: 120kts Options: - Use NATs: yes - Use PACOTS: yes - Use low airways: yes - Use high airways: no

Route

UKBB BUDUK B144 IVF UKLU

ID Type Via Altitude Latitude Longitude Leg Dist Tot Dist Heading (true) Name
O UKBB APT - 0 ft / 0 m 50.33947˚ 30.89290˚ - 0 nm - Boryspil
BUDUK FIX - 26,200 ft / 7,986 m 50.04141˚ 28.96044˚ 76 nm 76 nm 257° / 256° -
SORON FIX B144 (AWY-LO) 26,000 ft / 7,925 m 49.76139˚ 27.84822˚ 46 nm 122 nm 249° / 248° -
BAGSA FIX B144 (AWY-LO) 26,000 ft / 7,925 m 49.26163˚ 25.99906˚ 78 nm 200 nm 248° / 247° -
ILTUK FIX B144 (AWY-LO) 26,000 ft / 7,925 m 49.11967˚ 25.49989˚ 21 nm 222 nm 247° / 246° -
IVF VOR B144 (AWY-LO) 20,800 ft / 6,340 m 48.88466˚ 24.68990˚ 34 nm 256 nm 246° / 246° IVANO FRANKIVSK VOR-DME
O UKLU APT - 0 ft / 0 m 48.63428˚ 22.26336˚ 97 nm 354 nm 262° / 260° UZHHOROD INTL

Altitude Profile

Weather

Temperature
Clouds and Precipitation
Forecast for 2017-03-25 12:00 UTC. Updated 8 minutes ago
Winds

UKBB

Details ICAO UKBB (KBP)
Name Boryspil
Region Ukraine
Timezone Europe/Kiev (UTC+2.0)
Stats Elevation 421 ft / 128 m (AMSL)
Location 50.339472° 30.892903°
Runways 2
Magnetic Variation 7.585° E

METAR

UKBB 250700Z 34004MPS CAVOK 04/M02 Q1023 R88/CLRD// NOSIG

Decode

TAF

TAF UKBB 250500Z 2506/2606 32005G10MPS 9999 BKN020 BECMG 2515/2517 19003MPS 5000 -RA BR OVC007 TEMPO 2517/2606 16006G11MPS 1400 SHRASN BR BKN004 SCT015CB TX07/2512Z TN00/2604Z

Decode

Departure Runways

ID Width Length Bearing (true) Bearing (mag) Surface Threshold Offset Overrun Length
18L 197 ft / 60 m 13,152 ft / 4,009 m 182.72° 175.14° Concrete 0 ft / 0 m 295 ft / 90 m
18R 207 ft / 63 m 11,470 ft / 3,496 m 182.62° 175.04° Concrete 0 ft / 0 m 164 ft / 50 m
36L 207 ft / 63 m 11,470 ft / 3,496 m 2.62° 355.04° Concrete 0 ft / 0 m 164 ft / 50 m
36R 197 ft / 60 m 13,152 ft / 4,009 m 2.72° 355.14° Concrete 0 ft / 0 m 295 ft / 90 m

UKLU

Details ICAO UKLU (UDJ)
Name UZHHOROD INTL
Region Ukraine
Timezone Europe/Uzhgorod (UTC+2.0)
Stats Elevation 383 ft / 117 m (AMSL)
Location 48.634278° 22.263355°
Runways 1
Magnetic Variation 5.457° E

METAR

UKLU 250700Z 32005MPS 290V010 9999 BKN200 09/M00 Q1025 R10/090070 NOSIG

Decode

TAF

Not found

Destination Runways

ID Width Length Bearing (true) Bearing (mag) Surface Threshold Offset Overrun Length
10 131 ft / 40 m 6,682 ft / 2,037 m 103.38° 97.92° Concrete 0 ft / 0 m 0 ft / 0 m
28 131 ft / 40 m 6,682 ft / 2,037 m 283.40° 277.94° Concrete 1,765 ft / 538 m 0 ft / 0 m

Popular Alternatives